Startpagina
METAR-TAF:

METAR-TAF

Vliegvelden :

Ilo, Peru

breedte: 17-41-45S, lengte: 071-20-35W, hoogte: 22 m

Actueel weer

Dit bericht is 11 uur en het 16 minuten geleden gemaakt, om 21:00 UTC
Wind 10 kt uit het zuidoosten
Temperatuur 27°C
Vochtigheid 79%
Druk 1012 hPa
Zicht 10 km of meer
geen wolken onder 1500 m en geen cumulonimbus

METAR: SPLO 282100Z 14010KT CAVOK 27/23 Q1012 RMK TX 28.8 PP000

Tijdstip: 03:16 (08:16 UTC)

Verwachting

Dit bericht is 15 uur en het 16 minuten geleden gemaakt, om 17:00 UTC
Verwachting geldig van 28 om 18 UTC tot 29 om 18 UTC
Wind 8 kt uit het zuidzuidoosten
Zicht 10 km of meer
Verspreide wolken op 3000 ft

TAF: SPLO 281700Z 2818/2918 15008KT 9999 SCT030 TX24/2819Z TN20/2910Z

Waarnemingen en weersverwachtingen van meer dan 4000 vliegvelden (METAR en TAF).

De beschikbare stations zijn de gele en rode punten op de kaart.

Ga met uw muis naar het station om de naam te zien.

Klik dan om waarnemingen en weersverwachtingen te zien.

kaart wijzigen: klik op de groene knoppen met een zwart kruis om in te zoomen, op de groene knop met een streepje om uit te zoomen of op de groene pijlen voor aangrenzende kaarten.


METAR-TAF: